sensor_id;sensor_type;location;lat;lon;timestamp;pressure;altitude;pressure_sealevel;temperature;humidity
60820;BME280;46641;48.904;9.126;2023-05-03T00:01:23;99402.91;;;17.82;49.08
60820;BME280;46641;48.904;9.126;2023-05-03T00:06:16;99409.22;;;17.73;49.45
60820;BME280;46641;48.904;9.126;2023-05-03T00:11:10;99417.00;;;17.74;49.58
60820;BME280;46641;48.904;9.126;2023-05-03T00:16:05;99415.16;;;17.83;49.60
60820;BME280;46641;48.904;9.126;2023-05-03T00:21:01;99405.72;;;17.81;49.55
60820;BME280;46641;48.904;9.126;2023-05-03T00:25:54;99410.19;;;17.80;49.67
60820;BME280;46641;48.904;9.126;2023-05-03T00:30:51;99414.53;;;17.81;50.00
60820;BME280;46641;48.904;9.126;2023-05-03T00:35:44;99409.56;;;17.78;49.68
60820;BME280;46641;48.904;9.126;2023-05-03T00:40:34;99400.44;;;17.72;49.63
60820;BME280;46641;48.904;9.126;2023-05-03T00:45:25;99407.06;;;17.77;49.93
60820;BME280;46641;48.904;9.126;2023-05-03T00:50:16;99396.47;;;17.77;49.74
60820;BME280;46641;48.904;9.126;2023-05-03T00:55:12;99396.78;;;17.73;49.69
60820;BME280;46641;48.904;9.126;2023-05-03T01:00:13;99386.38;;;17.72;49.70
60820;BME280;46641;48.904;9.126;2023-05-03T01:05:08;99396.50;;;17.68;49.82
60820;BME280;46641;48.904;9.126;2023-05-03T01:10:23;99396.16;;;17.63;49.55
60820;BME280;46641;48.904;9.126;2023-05-03T01:20:32;99386.94;;;17.59;50.20
60820;BME280;46641;48.904;9.126;2023-05-03T01:25:27;99379.47;;;17.55;50.04
60820;BME280;46641;48.904;9.126;2023-05-03T01:30:24;99380.81;;;17.50;49.94
60820;BME280;46641;48.904;9.126;2023-05-03T01:35:26;99378.69;;;17.46;50.11
60820;BME280;46641;48.904;9.126;2023-05-03T01:40:27;99379.03;;;17.43;49.92
60820;BME280;46641;48.904;9.126;2023-05-03T01:45:21;99371.78;;;17.37;50.66
60820;BME280;46641;48.904;9.126;2023-05-03T01:50:12;99370.47;;;17.33;50.56
60820;BME280;46641;48.904;9.126;2023-05-03T01:55:05;99372.25;;;17.32;50.51
60820;BME280;46641;48.904;9.126;2023-05-03T02:00:01;99380.56;;;17.29;50.52
60820;BME280;46641;48.904;9.126;2023-05-03T02:04:54;99376.78;;;17.23;50.67
60820;BME280;46641;48.904;9.126;2023-05-03T02:09:48;99383.41;;;17.19;50.82
60820;BME280;46641;48.904;9.126;2023-05-03T02:14:41;99382.56;;;17.19;50.71
60820;BME280;46641;48.904;9.126;2023-05-03T02:19:34;99381.09;;;17.16;50.83
60820;BME280;46641;48.904;9.126;2023-05-03T02:24:28;99375.47;;;17.11;50.92
60820;BME280;46641;48.904;9.126;2023-05-03T02:29:24;99372.50;;;17.06;50.87
60820;BME280;46641;48.904;9.126;2023-05-03T02:34:20;99370.34;;;17.01;50.78
60820;BME280;46641;48.904;9.126;2023-05-03T02:39:16;99382.91;;;16.99;51.18
60820;BME280;46641;48.904;9.126;2023-05-03T02:44:09;99378.97;;;16.95;50.94
60820;BME280;46641;48.904;9.126;2023-05-03T02:49:01;99364.91;;;16.95;51.04
60820;BME280;46641;48.904;9.126;2023-05-03T02:53:54;99366.59;;;16.88;50.94
60820;BME280;46641;48.904;9.126;2023-05-03T02:58:47;99368.56;;;16.86;51.07
60820;BME280;46641;48.904;9.126;2023-05-03T03:03:46;99364.59;;;16.81;51.08
60820;BME280;46641;48.904;9.126;2023-05-03T03:08:41;99377.31;;;16.78;51.11
60820;BME280;46641;48.904;9.126;2023-05-03T03:13:31;99375.31;;;16.72;51.33
60820;BME280;46641;48.904;9.126;2023-05-03T03:18:28;99376.78;;;16.66;51.26
60820;BME280;46641;48.904;9.126;2023-05-03T03:23:21;99371.81;;;16.63;51.44
60820;BME280;46641;48.904;9.126;2023-05-03T03:28:16;99372.50;;;16.57;51.47
60820;BME280;46641;48.904;9.126;2023-05-03T03:33:16;99374.81;;;16.52;51.43
60820;BME280;46641;48.904;9.126;2023-05-03T03:38:10;99381.06;;;16.43;51.57
60820;BME280;46641;48.904;9.126;2023-05-03T03:43:08;99387.00;;;16.36;51.68
60820;BME280;46641;48.904;9.126;2023-05-03T03:47:59;99389.34;;;16.31;51.80
60820;BME280;46641;48.904;9.126;2023-05-03T03:52:58;99390.63;;;16.27;51.65
60820;BME280;46641;48.904;9.126;2023-05-03T03:57:54;99394.59;;;16.23;51.83
60820;BME280;46641;48.904;9.126;2023-05-03T04:02:44;99399.19;;;16.21;51.99
60820;BME280;46641;48.904;9.126;2023-05-03T04:07:46;99406.97;;;16.23;51.86
60820;BME280;46641;48.904;9.126;2023-05-03T04:12:36;99402.81;;;16.20;51.90
60820;BME280;46641;48.904;9.126;2023-05-03T04:17:29;99407.44;;;16.18;51.84
60820;BME280;46641;48.904;9.126;2023-05-03T04:22:21;99418.31;;;16.15;52.02
60820;BME280;46641;48.904;9.126;2023-05-03T04:27:16;99415.19;;;16.11;52.04
60820;BME280;46641;48.904;9.126;2023-05-03T04:32:07;99421.94;;;16.06;52.13
60820;BME280;46641;48.904;9.126;2023-05-03T04:37:03;99411.69;;;16.03;52.37
60820;BME280;46641;48.904;9.126;2023-05-03T04:41:54;99419.13;;;15.99;52.08
60820;BME280;46641;48.904;9.126;2023-05-03T04:46:44;99410.16;;;15.92;52.14
60820;BME280;46641;48.904;9.126;2023-05-03T04:51:34;99426.31;;;15.89;52.31
60820;BME280;46641;48.904;9.126;2023-05-03T04:56:25;99428.31;;;15.87;52.49
60820;BME280;46641;48.904;9.126;2023-05-03T05:01:15;99431.09;;;15.85;52.46
60820;BME280;46641;48.904;9.126;2023-05-03T05:06:06;99434.31;;;15.19;51.87
60820;BME280;46641;48.904;9.126;2023-05-03T05:11:00;99437.16;;;15.26;51.11
60820;BME280;46641;48.904;9.126;2023-05-03T05:15:52;99437.94;;;15.18;51.01
60820;BME280;46641;48.904;9.126;2023-05-03T05:20:43;99433.94;;;15.14;50.96
60820;BME280;46641;48.904;9.126;2023-05-03T05:25:33;99435.19;;;15.02;51.26
60820;BME280;46641;48.904;9.126;2023-05-03T05:30:23;99435.88;;;14.86;51.59
60820;BME280;46641;48.904;9.126;2023-05-03T05:35:14;99442.13;;;15.03;51.32
60820;BME280;46641;48.904;9.126;2023-05-03T05:40:07;99438.69;;;15.10;51.45
60820;BME280;46641;48.904;9.126;2023-05-03T05:44:57;99439.59;;;15.19;51.23
60820;BME280;46641;48.904;9.126;2023-05-03T05:49:47;99439.28;;;15.22;51.25
60820;BME280;46641;48.904;9.126;2023-05-03T05:54:38;99440.28;;;15.21;51.48
60820;BME280;46641;48.904;9.126;2023-05-03T05:59:28;99440.41;;;15.19;51.45
60820;BME280;46641;48.904;9.126;2023-05-03T06:04:20;99447.50;;;15.19;51.56
60820;BME280;46641;48.904;9.126;2023-05-03T06:09:10;99448.50;;;15.18;51.79
60820;BME280;46641;48.904;9.126;2023-05-03T06:14:00;99438.78;;;15.18;51.49
60820;BME280;46641;48.904;9.126;2023-05-03T06:18:52;99445.69;;;15.19;51.68
60820;BME280;46641;48.904;9.126;2023-05-03T06:23:43;99445.69;;;15.19;51.87
60820;BME280;46641;48.904;9.126;2023-05-03T06:28:33;99438.47;;;15.22;52.03
60820;BME280;46641;48.904;9.126;2023-05-03T06:33:24;99446.22;;;15.23;52.01
60820;BME280;46641;48.904;9.126;2023-05-03T06:38:14;99451.47;;;15.23;52.03
60820;BME280;46641;48.904;9.126;2023-05-03T06:43:04;99444.56;;;15.22;52.15
60820;BME280;46641;48.904;9.126;2023-05-03T06:47:55;99452.63;;;15.20;52.26
60820;BME280;46641;48.904;9.126;2023-05-03T06:52:45;99437.66;;;15.21;52.34
60820;BME280;46641;48.904;9.126;2023-05-03T06:57:35;99431.69;;;15.19;52.25
60820;BME280;46641;48.904;9.126;2023-05-03T07:02:26;99436.66;;;15.22;52.25
60820;BME280;46641;48.904;9.126;2023-05-03T07:07:16;99421.53;;;15.24;52.18
60820;BME280;46641;48.904;9.126;2023-05-03T07:12:06;99418.72;;;15.26;52.29
60820;BME280;46641;48.904;9.126;2023-05-03T07:16:57;99416.91;;;15.26;52.37
60820;BME280;46641;48.904;9.126;2023-05-03T07:21:47;99414.25;;;15.26;52.46
60820;BME280;46641;48.904;9.126;2023-05-03T07:26:38;99414.78;;;15.30;52.62
60820;BME280;46641;48.904;9.126;2023-05-03T07:31:28;99413.94;;;15.29;52.66
60820;BME280;46641;48.904;9.126;2023-05-03T07:36:18;99408.69;;;15.29;52.73
60820;BME280;46641;48.904;9.126;2023-05-03T07:41:09;99411.81;;;15.33;52.93
60820;BME280;46641;48.904;9.126;2023-05-03T07:45:59;99404.44;;;15.36;52.67
60820;BME280;46641;48.904;9.126;2023-05-03T07:50:49;99400.81;;;15.37;53.08
60820;BME280;46641;48.904;9.126;2023-05-03T07:55:40;99404.63;;;15.43;52.79
60820;BME280;46641;48.904;9.126;2023-05-03T08:00:30;99406.50;;;15.51;52.86
60820;BME280;46641;48.904;9.126;2023-05-03T08:05:21;99394.63;;;15.55;52.77
60820;BME280;46641;48.904;9.126;2023-05-03T08:10:12;99403.88;;;15.59;52.70
60820;BME280;46641;48.904;9.126;2023-05-03T08:15:02;99393.84;;;15.62;52.69
60820;BME280;46641;48.904;9.126;2023-05-03T08:19:55;99387.16;;;15.68;52.66
60820;BME280;46641;48.904;9.126;2023-05-03T08:24:46;99396.06;;;15.75;52.56
60820;BME280;46641;48.904;9.126;2023-05-03T08:29:36;99402.06;;;15.85;52.33
60820;BME280;46641;48.904;9.126;2023-05-03T08:34:27;99398.00;;;15.99;52.11
60820;BME280;46641;48.904;9.126;2023-05-03T08:39:17;99395.69;;;16.04;51.83
60820;BME280;46641;48.904;9.126;2023-05-03T08:44:10;99394.38;;;16.08;51.95
60820;BME280;46641;48.904;9.126;2023-05-03T08:49:01;99398.53;;;16.19;51.99
60820;BME280;46641;48.904;9.126;2023-05-03T08:53:53;99403.50;;;16.30;51.70
60820;BME280;46641;48.904;9.126;2023-05-03T08:58:43;99406.50;;;16.35;51.87
60820;BME280;46641;48.904;9.126;2023-05-03T09:03:34;99405.69;;;16.43;52.02
60820;BME280;46641;48.904;9.126;2023-05-03T09:08:25;99410.31;;;16.49;51.93
60820;BME280;46641;48.904;9.126;2023-05-03T09:13:15;99409.34;;;16.58;52.72
60820;BME280;46641;48.904;9.126;2023-05-03T09:18:19;99405.72;;;16.68;52.16
60820;BME280;46641;48.904;9.126;2023-05-03T09:23:10;99400.94;;;16.79;52.64
60820;BME280;46641;48.904;9.126;2023-05-03T09:28:00;99415.66;;;16.90;52.96
60820;BME280;46641;48.904;9.126;2023-05-03T09:32:51;99390.22;;;16.97;53.51
60820;BME280;46641;48.904;9.126;2023-05-03T09:37:42;99401.59;;;17.06;53.26
60820;BME280;46641;48.904;9.126;2023-05-03T09:42:32;99392.97;;;17.20;53.33
60820;BME280;46641;48.904;9.126;2023-05-03T09:47:22;99388.47;;;17.37;53.14
60820;BME280;46641;48.904;9.126;2023-05-03T09:52:14;99385.28;;;17.50;52.98
60820;BME280;46641;48.904;9.126;2023-05-03T09:57:07;99380.63;;;17.60;50.78
60820;BME280;46641;48.904;9.126;2023-05-03T10:01:58;99401.28;;;16.85;51.02
60820;BME280;46641;48.904;9.126;2023-05-03T10:06:52;99386.75;;;16.97;51.49
60820;BME280;46641;48.904;9.126;2023-05-03T10:11:57;99378.13;;;17.11;51.08
60820;BME280;46641;48.904;9.126;2023-05-03T10:16:50;99383.38;;;17.36;49.91
60820;BME280;46641;48.904;9.126;2023-05-03T10:22:02;99369.22;;;17.60;50.44
60820;BME280;46641;48.904;9.126;2023-05-03T10:26:54;99366.31;;;17.86;49.70
60820;BME280;46641;48.904;9.126;2023-05-03T10:31:46;99365.97;;;17.89;49.28
60820;BME280;46641;48.904;9.126;2023-05-03T10:36:36;99354.91;;;17.85;49.67
60820;BME280;46641;48.904;9.126;2023-05-03T10:41:27;99349.56;;;18.16;49.30
60820;BME280;46641;48.904;9.126;2023-05-03T10:46:32;99340.53;;;18.34;48.85
60820;BME280;46641;48.904;9.126;2023-05-03T10:56:19;99339.38;;;18.36;48.60
60820;BME280;46641;48.904;9.126;2023-05-03T11:01:12;99336.63;;;18.44;47.29
60820;BME280;46641;48.904;9.126;2023-05-03T11:06:03;99338.41;;;18.75;47.43
60820;BME280;46641;48.904;9.126;2023-05-03T11:10:58;99326.97;;;18.75;46.54
60820;BME280;46641;48.904;9.126;2023-05-03T11:15:49;99311.91;;;18.90;47.40
60820;BME280;46641;48.904;9.126;2023-05-03T11:20:39;99305.41;;;19.07;47.18
60820;BME280;46641;48.904;9.126;2023-05-03T11:25:30;99299.25;;;19.36;48.40
60820;BME280;46641;48.904;9.126;2023-05-03T11:30:22;99295.50;;;19.60;48.30
60820;BME280;46641;48.904;9.126;2023-05-03T11:35:13;99293.25;;;19.79;47.64
60820;BME280;46641;48.904;9.126;2023-05-03T11:40:06;99298.81;;;19.99;48.42
60820;BME280;46641;48.904;9.126;2023-05-03T11:44:57;99296.47;;;20.11;48.23
60820;BME280;46641;48.904;9.126;2023-05-03T11:49:54;99291.66;;;20.21;47.96
60820;BME280;46641;48.904;9.126;2023-05-03T11:54:45;99283.56;;;20.29;48.70
60820;BME280;46641;48.904;9.126;2023-05-03T11:59:37;99275.81;;;20.34;48.16
60820;BME280;46641;48.904;9.126;2023-05-03T12:04:28;99276.78;;;20.48;48.48
60820;BME280;46641;48.904;9.126;2023-05-03T12:09:19;99277.47;;;20.57;48.46
60820;BME280;46641;48.904;9.126;2023-05-03T12:14:10;99266.06;;;20.63;48.80
60820;BME280;46641;48.904;9.126;2023-05-03T12:19:00;99272.06;;;20.71;48.96
60820;BME280;46641;48.904;9.126;2023-05-03T12:23:53;99270.66;;;20.75;49.29
60820;BME280;46641;48.904;9.126;2023-05-03T12:28:45;99272.75;;;20.80;48.61
60820;BME280;46641;48.904;9.126;2023-05-03T12:33:36;99259.66;;;20.85;48.74
60820;BME280;46641;48.904;9.126;2023-05-03T12:38:26;99253.31;;;20.86;48.83
60820;BME280;46641;48.904;9.126;2023-05-03T12:43:16;99251.88;;;20.84;49.73
60820;BME280;46641;48.904;9.126;2023-05-03T12:48:07;99244.28;;;20.81;49.84
60820;BME280;46641;48.904;9.126;2023-05-03T12:52:57;99239.81;;;20.88;48.81
60820;BME280;46641;48.904;9.126;2023-05-03T12:57:48;99241.91;;;20.99;48.08
60820;BME280;46641;48.904;9.126;2023-05-03T13:02:38;99239.25;;;20.15;48.62
60820;BME280;46641;48.904;9.126;2023-05-03T13:07:28;99237.19;;;20.60;47.96
60820;BME280;46641;48.904;9.126;2023-05-03T13:12:19;99226.09;;;20.84;47.78
60820;BME280;46641;48.904;9.126;2023-05-03T13:17:10;99220.06;;;21.04;47.31
60820;BME280;46641;48.904;9.126;2023-05-03T13:22:02;99217.03;;;21.13;47.39
60820;BME280;46641;48.904;9.126;2023-05-03T13:26:52;99200.25;;;21.19;48.14
60820;BME280;46641;48.904;9.126;2023-05-03T13:31:43;99202.72;;;21.21;47.88
60820;BME280;46641;48.904;9.126;2023-05-03T13:36:34;99194.53;;;21.22;47.99
60820;BME280;46641;48.904;9.126;2023-05-03T13:41:24;99185.94;;;21.27;47.11
60820;BME280;46641;48.904;9.126;2023-05-03T13:46:15;99186.38;;;21.31;47.88
60820;BME280;46641;48.904;9.126;2023-05-03T13:51:10;99183.16;;;21.35;47.23
60820;BME280;46641;48.904;9.126;2023-05-03T13:56:01;99183.56;;;21.39;47.11
60820;BME280;46641;48.904;9.126;2023-05-03T14:00:52;99176.19;;;21.41;47.36
60820;BME280;46641;48.904;9.126;2023-05-03T14:05:42;99172.13;;;21.45;48.28
60820;BME280;46641;48.904;9.126;2023-05-03T14:10:35;99159.81;;;21.51;47.37
60820;BME280;46641;48.904;9.126;2023-05-03T14:15:26;99160.84;;;21.50;46.86
60820;BME280;46641;48.904;9.126;2023-05-03T14:20:16;99160.22;;;21.54;47.30
60820;BME280;46641;48.904;9.126;2023-05-03T14:25:07;99151.63;;;21.59;47.73
60820;BME280;46641;48.904;9.126;2023-05-03T14:29:57;99141.81;;;21.59;47.64
60820;BME280;46641;48.904;9.126;2023-05-03T14:34:47;99131.16;;;21.59;47.99
60820;BME280;46641;48.904;9.126;2023-05-03T14:39:38;99128.25;;;21.61;46.50
60820;BME280;46641;48.904;9.126;2023-05-03T14:44:28;99123.56;;;21.63;46.24
60820;BME280;46641;48.904;9.126;2023-05-03T14:49:18;99129.13;;;21.68;45.59
60820;BME280;46641;48.904;9.126;2023-05-03T14:54:09;99121.31;;;21.73;45.50
60820;BME280;46641;48.904;9.126;2023-05-03T14:59:00;99117.84;;;21.73;45.98
60820;BME280;46641;48.904;9.126;2023-05-03T15:03:51;99117.19;;;21.77;46.70
60820;BME280;46641;48.904;9.126;2023-05-03T15:08:41;99120.50;;;21.79;45.85
60820;BME280;46641;48.904;9.126;2023-05-03T15:13:32;99122.28;;;21.32;42.18
60820;BME280;46641;48.904;9.126;2023-05-03T15:18:22;99106.47;;;21.24;40.35
60820;BME280;46641;48.904;9.126;2023-05-03T15:23:15;99127.91;;;21.02;38.47
60820;BME280;46641;48.904;9.126;2023-05-03T15:28:05;99124.41;;;20.95;37.61
60820;BME280;46641;48.904;9.126;2023-05-03T15:32:56;99131.41;;;21.03;38.37
60820;BME280;46641;48.904;9.126;2023-05-03T15:37:46;99119.16;;;21.22;38.83
60820;BME280;46641;48.904;9.126;2023-05-03T15:42:37;99120.78;;;21.10;37.69
60820;BME280;46641;48.904;9.126;2023-05-03T15:47:27;99113.81;;;21.22;38.71
60820;BME280;46641;48.904;9.126;2023-05-03T15:52:17;99115.84;;;21.07;35.57
60820;BME280;46641;48.904;9.126;2023-05-03T15:57:08;99114.31;;;20.77;36.74
60820;BME280;46641;48.904;9.126;2023-05-03T16:01:58;99111.69;;;20.84;36.65
60820;BME280;46641;48.904;9.126;2023-05-03T16:06:48;99101.63;;;20.80;36.08
60820;BME280;46641;48.904;9.126;2023-05-03T16:11:39;99097.38;;;20.98;36.75
60820;BME280;46641;48.904;9.126;2023-05-03T16:16:29;99099.28;;;21.11;35.71
60820;BME280;46641;48.904;9.126;2023-05-03T16:21:19;99095.34;;;21.00;35.69
60820;BME280;46641;48.904;9.126;2023-05-03T16:26:13;99094.31;;;21.01;35.99
60820;BME280;46641;48.904;9.126;2023-05-03T16:31:03;99090.97;;;21.47;37.20
60820;BME280;46641;48.904;9.126;2023-05-03T16:35:53;99078.69;;;21.73;37.23
60820;BME280;46641;48.904;9.126;2023-05-03T16:40:44;99073.56;;;21.78;36.80
60820;BME280;46641;48.904;9.126;2023-05-03T16:45:35;99073.16;;;21.81;37.36
60820;BME280;46641;48.904;9.126;2023-05-03T16:50:26;99078.06;;;21.84;38.14
60820;BME280;46641;48.904;9.126;2023-05-03T16:55:21;99067.00;;;21.87;37.79
60820;BME280;46641;48.904;9.126;2023-05-03T17:00:11;99072.53;;;21.86;38.33
60820;BME280;46641;48.904;9.126;2023-05-03T17:05:03;99069.25;;;21.90;38.45
60820;BME280;46641;48.904;9.126;2023-05-03T17:09:54;99072.94;;;21.89;38.62
60820;BME280;46641;48.904;9.126;2023-05-03T17:14:44;99070.47;;;21.94;38.42
60820;BME280;46641;48.904;9.126;2023-05-03T17:19:35;99075.19;;;21.92;39.09
60820;BME280;46641;48.904;9.126;2023-05-03T17:24:25;99070.88;;;21.91;38.96
60820;BME280;46641;48.904;9.126;2023-05-03T17:29:16;99063.94;;;21.90;39.10
60820;BME280;46641;48.904;9.126;2023-05-03T17:34:06;99066.16;;;21.93;39.46
60820;BME280;46641;48.904;9.126;2023-05-03T17:38:56;99065.75;;;21.90;39.53
60820;BME280;46641;48.904;9.126;2023-05-03T17:43:47;99071.50;;;21.87;39.03
60820;BME280;46641;48.904;9.126;2023-05-03T17:48:39;99071.91;;;21.84;39.45
60820;BME280;46641;48.904;9.126;2023-05-03T17:53:31;99071.31;;;21.82;39.24
60820;BME280;46641;48.904;9.126;2023-05-03T17:58:21;99072.53;;;21.79;39.60
60820;BME280;46641;48.904;9.126;2023-05-03T18:03:12;99078.69;;;21.73;39.66
60820;BME280;46641;48.904;9.126;2023-05-03T18:08:03;99078.09;;;21.64;40.17
60820;BME280;46641;48.904;9.126;2023-05-03T18:12:53;99079.91;;;21.64;39.45
60820;BME280;46641;48.904;9.126;2023-05-03T18:17:44;99082.56;;;21.57;39.32
60820;BME280;46641;48.904;9.126;2023-05-03T18:22:34;99086.88;;;21.52;39.63
60820;BME280;46641;48.904;9.126;2023-05-03T18:27:25;99088.09;;;21.49;39.81
60820;BME280;46641;48.904;9.126;2023-05-03T18:32:15;99101.22;;;21.51;40.11
60820;BME280;46641;48.904;9.126;2023-05-03T18:37:05;99091.59;;;21.50;40.08
60820;BME280;46641;48.904;9.126;2023-05-03T18:41:56;99096.91;;;21.43;40.25
60820;BME280;46641;48.904;9.126;2023-05-03T18:46:47;99102.81;;;21.38;40.25
60820;BME280;46641;48.904;9.126;2023-05-03T18:51:37;99103.25;;;21.35;40.14
60820;BME280;46641;48.904;9.126;2023-05-03T18:56:27;99104.44;;;21.33;40.48
60820;BME280;46641;48.904;9.126;2023-05-03T19:01:19;99109.97;;;21.31;40.60
60820;BME280;46641;48.904;9.126;2023-05-03T19:06:09;99116.53;;;21.29;40.56
60820;BME280;46641;48.904;9.126;2023-05-03T19:11:07;99111.78;;;21.24;40.22
60820;BME280;46641;48.904;9.126;2023-05-03T19:15:58;99107.69;;;21.21;40.65
60820;BME280;46641;48.904;9.126;2023-05-03T19:20:49;99113.63;;;21.17;40.81
60820;BME280;46641;48.904;9.126;2023-05-03T19:25:39;99116.69;;;21.14;40.85
60820;BME280;46641;48.904;9.126;2023-05-03T19:30:29;99123.03;;;21.13;41.00
60820;BME280;46641;48.904;9.126;2023-05-03T19:35:20;99115.47;;;21.10;40.98
60820;BME280;46641;48.904;9.126;2023-05-03T19:40:11;99114.00;;;21.07;40.59
60820;BME280;46641;48.904;9.126;2023-05-03T19:45:02;99118.91;;;21.04;40.83
60820;BME280;46641;48.904;9.126;2023-05-03T19:49:52;99131.81;;;21.00;40.89
60820;BME280;46641;48.904;9.126;2023-05-03T19:54:43;99132.19;;;20.97;41.19
60820;BME280;46641;48.904;9.126;2023-05-03T19:59:33;99137.09;;;20.93;41.37
60820;BME280;46641;48.904;9.126;2023-05-03T20:04:24;99137.50;;;20.90;41.50
60820;BME280;46641;48.904;9.126;2023-05-03T20:09:15;99151.19;;;20.87;41.38
60820;BME280;46641;48.904;9.126;2023-05-03T20:14:06;99142.97;;;20.82;41.84
60820;BME280;46641;48.904;9.126;2023-05-03T20:18:57;99153.00;;;20.80;41.97
60820;BME280;46641;48.904;9.126;2023-05-03T20:23:47;99154.63;;;20.74;41.47
60820;BME280;46641;48.904;9.126;2023-05-03T20:28:38;99148.06;;;20.70;42.24
60820;BME280;46641;48.904;9.126;2023-05-03T20:33:28;99145.97;;;20.66;42.30
60820;BME280;46641;48.904;9.126;2023-05-03T20:38:19;99142.88;;;20.62;42.47
60820;BME280;46641;48.904;9.126;2023-05-03T20:43:09;99138.97;;;20.58;42.15
60820;BME280;46641;48.904;9.126;2023-05-03T20:48:00;99137.91;;;20.52;42.51
60820;BME280;46641;48.904;9.126;2023-05-03T20:52:50;99141.16;;;20.48;42.36
60820;BME280;46641;48.904;9.126;2023-05-03T20:57:40;99134.75;;;20.42;42.62
60820;BME280;46641;48.904;9.126;2023-05-03T21:02:31;99141.50;;;20.38;42.72
60820;BME280;46641;48.904;9.126;2023-05-03T21:07:21;99139.63;;;20.32;42.68
60820;BME280;46641;48.904;9.126;2023-05-03T21:12:11;99139.75;;;20.24;42.20
60820;BME280;46641;48.904;9.126;2023-05-03T21:17:02;99143.19;;;20.18;42.50
60820;BME280;46641;48.904;9.126;2023-05-03T21:21:52;99142.97;;;20.13;42.42
60820;BME280;46641;48.904;9.126;2023-05-03T21:26:42;99132.06;;;20.07;42.62
60820;BME280;46641;48.904;9.126;2023-05-03T21:31:33;99131.63;;;20.04;42.96
60820;BME280;46641;48.904;9.126;2023-05-03T21:36:23;99126.91;;;19.99;43.23
60820;BME280;46641;48.904;9.126;2023-05-03T21:41:13;99119.34;;;19.96;43.25
60820;BME280;46641;48.904;9.126;2023-05-03T21:46:07;99125.03;;;19.93;43.41
60820;BME280;46641;48.904;9.126;2023-05-03T21:50:57;99117.44;;;19.90;43.62
60820;BME280;46641;48.904;9.126;2023-05-03T21:55:48;99116.19;;;19.86;43.67
60820;BME280;46641;48.904;9.126;2023-05-03T22:00:38;99122.88;;;19.82;43.93
60820;BME280;46641;48.904;9.126;2023-05-03T22:05:31;99122.44;;;19.78;43.95
60820;BME280;46641;48.904;9.126;2023-05-03T22:10:22;99115.66;;;19.76;44.07
60820;BME280;46641;48.904;9.126;2023-05-03T22:15:12;99109.09;;;19.72;43.94
60820;BME280;46641;48.904;9.126;2023-05-03T22:20:03;99103.56;;;19.67;44.34
60820;BME280;46641;48.904;9.126;2023-05-03T22:24:53;99113.53;;;19.65;44.19
60820;BME280;46641;48.904;9.126;2023-05-03T22:29:44;99115.91;;;19.59;44.31
60820;BME280;46641;48.904;9.126;2023-05-03T22:34:34;99101.00;;;19.58;44.62
60820;BME280;46641;48.904;9.126;2023-05-03T22:39:24;99106.06;;;19.53;44.46
60820;BME280;46641;48.904;9.126;2023-05-03T22:44:15;99094.16;;;19.49;44.39
60820;BME280;46641;48.904;9.126;2023-05-03T22:49:06;99096.38;;;19.46;44.28
60820;BME280;46641;48.904;9.126;2023-05-03T22:53:56;99104.94;;;19.41;44.69
60820;BME280;46641;48.904;9.126;2023-05-03T22:58:46;99103.69;;;19.37;44.49
60820;BME280;46641;48.904;9.126;2023-05-03T23:03:37;99101.56;;;19.32;44.75
60820;BME280;46641;48.904;9.126;2023-05-03T23:08:27;99090.91;;;19.26;44.72
60820;BME280;46641;48.904;9.126;2023-05-03T23:13:17;99094.94;;;19.22;44.80
60820;BME280;46641;48.904;9.126;2023-05-03T23:18:08;99086.34;;;19.20;44.83
60820;BME280;46641;48.904;9.126;2023-05-03T23:22:58;99083.44;;;19.14;44.80
60820;BME280;46641;48.904;9.126;2023-05-03T23:27:48;99087.47;;;19.10;44.91
60820;BME280;46641;48.904;9.126;2023-05-03T23:32:39;99081.72;;;19.07;44.99
60820;BME280;46641;48.904;9.126;2023-05-03T23:37:29;99099.22;;;19.01;45.36
60820;BME280;46641;48.904;9.126;2023-05-03T23:42:20;99093.00;;;18.94;45.23
60820;BME280;46641;48.904;9.126;2023-05-03T23:47:10;99091.72;;;18.90;45.01
60820;BME280;46641;48.904;9.126;2023-05-03T23:52:00;99083.53;;;18.85;45.05
60820;BME280;46641;48.904;9.126;2023-05-03T23:56:51;99085.53;;;18.83;45.45
